LOT29M LBSF-EPWA
Flight info
| Callsign | LOT29M |
|---|---|
| Flight time | 1h 35m |
| Altitude | 36000 |
| Route | OGOTA N133 LOMOS DCT NARKA DCT KEKED DCT LENOV N133 KOTEK M866 LOGDA |
| Aircraft | E75L/M-SDE3GILORVW/S |
Departure
| Time | 2026-05-05 15:50 |
|---|---|
| Airport | Sofia Airport (LBSF) |
Arrival
| Time | 2026-05-05 17:26 |
|---|---|
| Airport | Warsaw Chopin Airport (EPWA) |
| Time | Latitude | Longitude | Altitude | Speed | Heading |
|---|---|---|---|---|---|
| 2026-05-05 15:36 | 42.69106 | 23.41282 | 1760 ft | 0 kts | 75° |
| 2026-05-05 15:39 | 42.69105 | 23.41274 | 1755 ft | 3 kts | 75° |
| 2026-05-05 15:39 | 42.69100 | 23.41251 | 1756 ft | 3 kts | 75° |
| 2026-05-05 15:39 | 42.69096 | 23.41228 | 1754 ft | 3 kts | 75° |
| 2026-05-05 15:40 | 42.69091 | 23.41204 | 1754 ft | 3 kts | 75° |
| 2026-05-05 15:40 | 42.69088 | 23.41192 | 1754 ft | 0 kts | 75° |
| 2026-05-05 15:44 | 42.69090 | 23.41193 | 1754 ft | 0 kts | 50° |
| 2026-05-05 15:44 | 42.69104 | 23.41197 | 1757 ft | 7 kts | 1° |
| 2026-05-05 15:44 | 42.69171 | 23.41172 | 1761 ft | 11 kts | 342° |
| 2026-05-05 15:44 | 42.69250 | 23.41158 | 1755 ft | 12 kts | 11° |
| 2026-05-05 15:45 | 42.69339 | 23.41183 | 1759 ft | 14 kts | 12° |
| 2026-05-05 15:45 | 42.69438 | 23.41210 | 1757 ft | 15 kts | 2° |
| 2026-05-05 15:45 | 42.69497 | 23.41115 | 1754 ft | 15 kts | 275° |
| 2026-05-05 15:45 | 42.69505 | 23.40963 | 1757 ft | 17 kts | 274° |
| 2026-05-05 15:46 | 42.69515 | 23.40795 | 1759 ft | 19 kts | 275° |
| 2026-05-05 15:46 | 42.69526 | 23.40616 | 1760 ft | 20 kts | 274° |
| 2026-05-05 15:46 | 42.69538 | 23.40420 | 1752 ft | 21 kts | 275° |
| 2026-05-05 15:46 | 42.69550 | 23.40212 | 1755 ft | 23 kts | 275° |
| 2026-05-05 15:47 | 42.69563 | 23.39992 | 1760 ft | 24 kts | 274° |
| 2026-05-05 15:47 | 42.69572 | 23.39837 | 1756 ft | 25 kts | 275° |
| 2026-05-05 15:47 | 42.69623 | 23.39600 | 1751 ft | 15 kts | 341° |
| 2026-05-05 15:47 | 42.69661 | 23.39599 | 1754 ft | 0 kts | 5° |
| 2026-05-05 15:48 | 42.69662 | 23.39599 | 1754 ft | 0 kts | 5° |
| 2026-05-05 15:48 | 42.69674 | 23.39600 | 1755 ft | 3 kts | 5° |
| 2026-05-05 15:49 | 42.69710 | 23.39604 | 1759 ft | 7 kts | 5° |
| 2026-05-05 15:49 | 42.69764 | 23.39619 | 1755 ft | 6 kts | 43° |
| 2026-05-05 15:49 | 42.69772 | 23.39694 | 1757 ft | 23 kts | 94° |
| 2026-05-05 15:49 | 42.69737 | 23.40256 | 1751 ft | 95 kts | 96° |
| 2026-05-05 15:50 | 42.69671 | 23.41457 | 1767 ft | 156 kts | 94° |
| 2026-05-05 15:50 | 42.69584 | 23.43027 | 2333 ft | 166 kts | 94° |
| 2026-05-05 15:50 | 42.69466 | 23.44557 | 3311 ft | 165 kts | 97° |
| 2026-05-05 15:50 | 42.69273 | 23.46123 | 3964 ft | 174 kts | 98° |
| 2026-05-05 15:51 | 42.69098 | 23.47785 | 4625 ft | 180 kts | 96° |
| 2026-05-05 15:51 | 42.68974 | 23.49538 | 5168 ft | 195 kts | 94° |
| 2026-05-05 15:51 | 42.68865 | 23.51474 | 5626 ft | 217 kts | 93° |
| 2026-05-05 15:51 | 42.68749 | 23.53622 | 6152 ft | 236 kts | 90° |
| 2026-05-05 15:52 | 42.69176 | 23.55827 | 6662 ft | 252 kts | 57° |
| 2026-05-05 15:52 | 42.70494 | 23.57427 | 7182 ft | 267 kts | 25° |
| 2026-05-05 15:52 | 42.72336 | 23.57858 | 7849 ft | 275 kts | 353° |
| 2026-05-05 15:52 | 42.74156 | 23.57064 | 8618 ft | 276 kts | 336° |
| 2026-05-05 15:53 | 42.75922 | 23.55990 | 9345 ft | 278 kts | 336° |
| 2026-05-05 15:53 | 42.77717 | 23.54974 | 10059 ft | 280 kts | 338° |
| 2026-05-05 15:53 | 42.79571 | 23.54053 | 10371 ft | 295 kts | 341° |
| 2026-05-05 15:53 | 42.81602 | 23.53380 | 10789 ft | 304 kts | 348° |
| 2026-05-05 15:54 | 42.83674 | 23.52714 | 11396 ft | 307 kts | 345° |
| 2026-05-05 15:54 | 42.85750 | 23.51940 | 12054 ft | 310 kts | 344° |
| 2026-05-05 15:54 | 42.87840 | 23.51105 | 12732 ft | 313 kts | 343° |
| 2026-05-05 15:54 | 42.89895 | 23.50074 | 13410 ft | 316 kts | 339° |
| 2026-05-05 15:55 | 42.91934 | 23.48971 | 14060 ft | 320 kts | 339° |
| 2026-05-05 15:55 | 42.94009 | 23.47833 | 14702 ft | 322 kts | 339° |
| 2026-05-05 15:55 | 42.96099 | 23.46683 | 15351 ft | 325 kts | 339° |
| 2026-05-05 15:55 | 42.98214 | 23.45514 | 15983 ft | 328 kts | 339° |
| 2026-05-05 15:56 | 43.00315 | 23.44354 | 16611 ft | 331 kts | 339° |
| 2026-05-05 15:56 | 43.02467 | 23.43167 | 17293 ft | 334 kts | 339° |
| 2026-05-05 15:56 | 43.04631 | 23.41971 | 17992 ft | 336 kts | 339° |
| 2026-05-05 15:56 | 43.06812 | 23.40764 | 18655 ft | 339 kts | 339° |
| 2026-05-05 15:57 | 43.09008 | 23.39551 | 19300 ft | 341 kts | 339° |
| 2026-05-05 15:57 | 43.11221 | 23.38324 | 19965 ft | 343 kts | 339° |
| 2026-05-05 15:57 | 43.13416 | 23.37107 | 20619 ft | 346 kts | 339° |
| 2026-05-05 15:57 | 43.15664 | 23.35861 | 21265 ft | 348 kts | 339° |
| 2026-05-05 15:58 | 43.17928 | 23.34622 | 21890 ft | 351 kts | 340° |
| 2026-05-05 15:58 | 43.20260 | 23.33591 | 22502 ft | 353 kts | 345° |
| 2026-05-05 15:58 | 43.22652 | 23.32749 | 23090 ft | 356 kts | 347° |
| 2026-05-05 15:58 | 43.25082 | 23.32267 | 23645 ft | 359 kts | 354° |
| 2026-05-05 15:59 | 43.27581 | 23.31917 | 24153 ft | 361 kts | 354° |
| 2026-05-05 15:59 | 43.30095 | 23.31618 | 24686 ft | 363 kts | 354° |
| 2026-05-05 15:59 | 43.32627 | 23.31301 | 25238 ft | 366 kts | 354° |
| 2026-05-05 15:59 | 43.35175 | 23.30984 | 25772 ft | 369 kts | 354° |
| 2026-05-05 16:00 | 43.37746 | 23.30664 | 26264 ft | 372 kts | 354° |
| 2026-05-05 16:00 | 43.40340 | 23.30341 | 26735 ft | 375 kts | 354° |
| 2026-05-05 16:00 | 43.42914 | 23.30021 | 27186 ft | 377 kts | 354° |
| 2026-05-05 16:00 | 43.45544 | 23.29693 | 27635 ft | 380 kts | 354° |
| 2026-05-05 16:01 | 43.48185 | 23.29358 | 28061 ft | 382 kts | 354° |
| 2026-05-05 16:01 | 43.50849 | 23.29026 | 28482 ft | 385 kts | 354° |
| 2026-05-05 16:01 | 43.53525 | 23.28697 | 28911 ft | 387 kts | 354° |
| 2026-05-05 16:01 | 43.56222 | 23.28364 | 29328 ft | 390 kts | 354° |
| 2026-05-05 16:02 | 43.58935 | 23.28029 | 29740 ft | 393 kts | 354° |
| 2026-05-05 16:02 | 43.61684 | 23.27689 | 29910 ft | 401 kts | 354° |
| 2026-05-05 16:02 | 43.64438 | 23.27348 | 30305 ft | 402 kts | 354° |
| 2026-05-05 16:02 | 43.67220 | 23.27003 | 30727 ft | 401 kts | 354° |
| 2026-05-05 16:03 | 43.70003 | 23.26659 | 31109 ft | 401 kts | 354° |
| 2026-05-05 16:03 | 43.72781 | 23.26314 | 31507 ft | 399 kts | 354° |
| 2026-05-05 16:03 | 43.75547 | 23.25970 | 31889 ft | 399 kts | 353° |
| 2026-05-05 16:03 | 43.78289 | 23.25628 | 32259 ft | 398 kts | 353° |
| 2026-05-05 16:04 | 43.81035 | 23.25194 | 32630 ft | 397 kts | 351° |
| 2026-05-05 16:04 | 43.83770 | 23.24595 | 32999 ft | 396 kts | 349° |
| 2026-05-05 16:04 | 43.86457 | 23.23762 | 33362 ft | 395 kts | 344° |
| 2026-05-05 16:04 | 43.89116 | 23.22786 | 33748 ft | 394 kts | 344° |
| 2026-05-05 16:05 | 43.91764 | 23.21779 | 34106 ft | 394 kts | 344° |
| 2026-05-05 16:05 | 43.94410 | 23.20763 | 34398 ft | 394 kts | 343° |
| 2026-05-05 16:05 | 43.97025 | 23.19757 | 34687 ft | 394 kts | 344° |
| 2026-05-05 16:05 | 43.99674 | 23.18737 | 34972 ft | 394 kts | 343° |
| 2026-05-05 16:06 | 44.01423 | 23.18064 | 35150 ft | 394 kts | 343° |
| 2026-05-05 16:06 | 44.04067 | 23.17046 | 35404 ft | 394 kts | 343° |
| 2026-05-05 16:06 | 44.06709 | 23.16027 | 35680 ft | 395 kts | 343° |
| 2026-05-05 16:06 | 44.09351 | 23.15008 | 35854 ft | 388 kts | 343° |
| 2026-05-05 16:07 | 44.11958 | 23.14002 | 35933 ft | 390 kts | 343° |
| 2026-05-05 16:07 | 44.17271 | 23.11948 | 35987 ft | 400 kts | 343° |
| 2026-05-05 16:08 | 44.22607 | 23.09882 | 35972 ft | 399 kts | 343° |
| 2026-05-05 16:08 | 44.27975 | 23.07799 | 35980 ft | 400 kts | 343° |
| 2026-05-05 16:09 | 44.33308 | 23.05725 | 35970 ft | 399 kts | 344° |
| 2026-05-05 16:09 | 44.38669 | 23.03638 | 35974 ft | 400 kts | 343° |
| 2026-05-05 16:10 | 44.44052 | 23.01537 | 35970 ft | 400 kts | 343° |
| 2026-05-05 16:10 | 44.49389 | 22.99450 | 35972 ft | 401 kts | 343° |
| 2026-05-05 16:11 | 44.54783 | 22.97338 | 35980 ft | 401 kts | 343° |
| 2026-05-05 16:12 | 44.65502 | 22.93127 | 35978 ft | 401 kts | 343° |
| 2026-05-05 16:13 | 44.78964 | 22.87814 | 35980 ft | 402 kts | 343° |
| 2026-05-05 16:13 | 44.84306 | 22.85675 | 35972 ft | 402 kts | 343° |
| 2026-05-05 16:14 | 44.95087 | 22.81394 | 35987 ft | 402 kts | 344° |
| 2026-05-05 16:15 | 45.05879 | 22.77090 | 35996 ft | 403 kts | 343° |
| 2026-05-05 16:16 | 45.16643 | 22.72780 | 35999 ft | 403 kts | 344° |
| 2026-05-05 16:17 | 45.24757 | 22.69521 | 35992 ft | 404 kts | 343° |
| 2026-05-05 16:18 | 45.32841 | 22.66263 | 35990 ft | 404 kts | 344° |
| 2026-05-05 16:19 | 45.40962 | 22.62980 | 35998 ft | 404 kts | 343° |
| 2026-05-05 16:19 | 45.49065 | 22.59696 | 35993 ft | 404 kts | 344° |
| 2026-05-05 16:20 | 45.59902 | 22.55287 | 35985 ft | 405 kts | 343° |
| 2026-05-05 16:22 | 45.73454 | 22.49750 | 35964 ft | 405 kts | 343° |
| 2026-05-05 16:23 | 45.84285 | 22.45303 | 35965 ft | 406 kts | 343° |
| 2026-05-05 16:23 | 45.92436 | 22.41946 | 35960 ft | 406 kts | 343° |
| 2026-05-05 16:24 | 45.97855 | 22.39707 | 35970 ft | 407 kts | 343° |
| 2026-05-05 16:25 | 46.06027 | 22.36324 | 35965 ft | 407 kts | 343° |
| 2026-05-05 16:25 | 46.14177 | 22.32938 | 35957 ft | 407 kts | 343° |
| 2026-05-05 16:26 | 46.25046 | 22.28408 | 35961 ft | 407 kts | 343° |
| 2026-05-05 16:27 | 46.30508 | 22.26123 | 35958 ft | 408 kts | 343° |
| 2026-05-05 16:27 | 46.35970 | 22.23835 | 35962 ft | 408 kts | 343° |
| 2026-05-05 16:28 | 46.41392 | 22.21559 | 35956 ft | 408 kts | 343° |
| 2026-05-05 16:28 | 46.46849 | 22.19263 | 35963 ft | 408 kts | 343° |
| 2026-05-05 16:29 | 46.52312 | 22.16959 | 35950 ft | 408 kts | 343° |
| 2026-05-05 16:29 | 46.57727 | 22.14671 | 35951 ft | 408 kts | 343° |
| 2026-05-05 16:30 | 46.63194 | 22.12357 | 35957 ft | 408 kts | 343° |
| 2026-05-05 16:30 | 46.68638 | 22.10047 | 35943 ft | 407 kts | 343° |
| 2026-05-05 16:31 | 46.74075 | 22.07735 | 35946 ft | 408 kts | 343° |
| 2026-05-05 16:31 | 46.79526 | 22.05413 | 35944 ft | 408 kts | 343° |
| 2026-05-05 16:32 | 46.84981 | 22.03083 | 35936 ft | 408 kts | 343° |
| 2026-05-05 16:32 | 46.90408 | 22.00762 | 35943 ft | 408 kts | 343° |
| 2026-05-05 16:33 | 46.95860 | 21.98423 | 35937 ft | 408 kts | 343° |
| 2026-05-05 16:33 | 47.01324 | 21.96076 | 35938 ft | 408 kts | 343° |
| 2026-05-05 16:34 | 47.06736 | 21.93745 | 35940 ft | 407 kts | 343° |
| 2026-05-05 16:34 | 47.12199 | 21.91388 | 35940 ft | 408 kts | 343° |
| 2026-05-05 16:35 | 47.17607 | 21.89049 | 35943 ft | 407 kts | 343° |
| 2026-05-05 16:35 | 47.23053 | 21.86689 | 35937 ft | 407 kts | 343° |
| 2026-05-05 16:36 | 47.28494 | 21.84326 | 35936 ft | 407 kts | 343° |
| 2026-05-05 16:36 | 47.33933 | 21.81959 | 35921 ft | 407 kts | 343° |
| 2026-05-05 16:37 | 47.39347 | 21.79597 | 35917 ft | 407 kts | 343° |
| 2026-05-05 16:37 | 47.44782 | 21.77221 | 35915 ft | 407 kts | 343° |
| 2026-05-05 16:38 | 47.50185 | 21.74855 | 35915 ft | 407 kts | 343° |
| 2026-05-05 16:38 | 47.55616 | 21.72471 | 35910 ft | 407 kts | 343° |
| 2026-05-05 16:39 | 47.61045 | 21.70082 | 35915 ft | 407 kts | 343° |
| 2026-05-05 16:39 | 47.66479 | 21.67686 | 35916 ft | 407 kts | 343° |
| 2026-05-05 16:40 | 47.71907 | 21.65288 | 35920 ft | 406 kts | 343° |
| 2026-05-05 16:40 | 47.77298 | 21.62900 | 35919 ft | 406 kts | 343° |
| 2026-05-05 16:41 | 47.82726 | 21.60491 | 35913 ft | 406 kts | 343° |
| 2026-05-05 16:41 | 47.88123 | 21.58091 | 35916 ft | 406 kts | 343° |
| 2026-05-05 16:42 | 47.93544 | 21.55675 | 35911 ft | 406 kts | 343° |
| 2026-05-05 16:42 | 47.98966 | 21.53253 | 35912 ft | 407 kts | 343° |
| 2026-05-05 16:43 | 48.04403 | 21.50819 | 35916 ft | 406 kts | 343° |
| 2026-05-05 16:43 | 48.09804 | 21.48396 | 35910 ft | 407 kts | 343° |
| 2026-05-05 16:44 | 48.15230 | 21.45956 | 35916 ft | 407 kts | 343° |
| 2026-05-05 16:44 | 48.20621 | 21.43526 | 35913 ft | 407 kts | 343° |
| 2026-05-05 16:45 | 48.26028 | 21.41085 | 35912 ft | 406 kts | 343° |
| 2026-05-05 16:45 | 48.31470 | 21.38622 | 35915 ft | 407 kts | 343° |
| 2026-05-05 16:46 | 48.36906 | 21.36155 | 35910 ft | 407 kts | 343° |
| 2026-05-05 16:46 | 48.42303 | 21.33701 | 35910 ft | 407 kts | 343° |
| 2026-05-05 16:47 | 48.47738 | 21.31224 | 35916 ft | 408 kts | 342° |
| 2026-05-05 16:47 | 48.53211 | 21.28863 | 35911 ft | 408 kts | 346° |
| 2026-05-05 16:48 | 48.58713 | 21.26951 | 35915 ft | 408 kts | 347° |
| 2026-05-05 16:48 | 48.64257 | 21.25063 | 35911 ft | 408 kts | 346° |
| 2026-05-05 16:49 | 48.69808 | 21.23167 | 35913 ft | 408 kts | 346° |
| 2026-05-05 16:49 | 48.75348 | 21.21269 | 35913 ft | 408 kts | 346° |
| 2026-05-05 16:50 | 48.80861 | 21.19376 | 35907 ft | 408 kts | 346° |
| 2026-05-05 16:50 | 48.86404 | 21.17468 | 35917 ft | 408 kts | 346° |
| 2026-05-05 16:51 | 48.91947 | 21.15554 | 35907 ft | 408 kts | 346° |
| 2026-05-05 16:51 | 48.97448 | 21.13653 | 35921 ft | 409 kts | 346° |
| 2026-05-05 16:52 | 49.02952 | 21.11745 | 35917 ft | 408 kts | 346° |
| 2026-05-05 16:52 | 49.08539 | 21.09804 | 35909 ft | 409 kts | 346° |
| 2026-05-05 16:53 | 49.14084 | 21.07873 | 35916 ft | 409 kts | 346° |
| 2026-05-05 16:53 | 49.19609 | 21.05944 | 35907 ft | 409 kts | 346° |
| 2026-05-05 16:54 | 49.25172 | 21.03998 | 35916 ft | 410 kts | 346° |
| 2026-05-05 16:54 | 49.29791 | 21.02377 | 35899 ft | 410 kts | 345° |
| 2026-05-05 16:55 | 49.36161 | 20.99574 | 35918 ft | 410 kts | 339° |
| 2026-05-05 16:55 | 49.40628 | 20.97099 | 35895 ft | 410 kts | 339° |
| 2026-05-05 16:56 | 49.45997 | 20.94062 | 35900 ft | 411 kts | 339° |
| 2026-05-05 16:56 | 49.51371 | 20.91017 | 35895 ft | 411 kts | 339° |
| 2026-05-05 16:57 | 49.56715 | 20.87983 | 35893 ft | 412 kts | 339° |
| 2026-05-05 16:57 | 49.62100 | 20.84920 | 35886 ft | 412 kts | 338° |
| 2026-05-05 16:58 | 49.67483 | 20.81850 | 35878 ft | 412 kts | 338° |
| 2026-05-05 16:58 | 49.72830 | 20.78793 | 35883 ft | 412 kts | 338° |
| 2026-05-05 16:59 | 49.78208 | 20.75713 | 35866 ft | 412 kts | 338° |
| 2026-05-05 16:59 | 49.83585 | 20.72625 | 35878 ft | 412 kts | 338° |
| 2026-05-05 17:00 | 49.88967 | 20.69528 | 35870 ft | 412 kts | 338° |
| 2026-05-05 17:00 | 49.94320 | 20.66439 | 35868 ft | 413 kts | 338° |
| 2026-05-05 17:01 | 49.99703 | 20.63325 | 35865 ft | 413 kts | 338° |
| 2026-05-05 17:01 | 50.05098 | 20.60197 | 35856 ft | 413 kts | 338° |
| 2026-05-05 17:02 | 50.10478 | 20.57071 | 35862 ft | 413 kts | 338° |
| 2026-05-05 17:02 | 50.15849 | 20.53943 | 35849 ft | 413 kts | 338° |
| 2026-05-05 17:03 | 50.21243 | 20.50793 | 35859 ft | 413 kts | 338° |
| 2026-05-05 17:03 | 50.26608 | 20.47653 | 35844 ft | 413 kts | 338° |
| 2026-05-05 17:04 | 50.31996 | 20.44491 | 35846 ft | 414 kts | 337° |
| 2026-05-05 17:04 | 50.37382 | 20.41323 | 35838 ft | 413 kts | 337° |
| 2026-05-05 17:05 | 50.42772 | 20.38145 | 35844 ft | 414 kts | 337° |
| 2026-05-05 17:05 | 50.45464 | 20.36555 | 35683 ft | 413 kts | 337° |
| 2026-05-05 17:05 | 50.48168 | 20.34956 | 34813 ft | 416 kts | 337° |
| 2026-05-05 17:06 | 50.50854 | 20.33365 | 34025 ft | 418 kts | 337° |
| 2026-05-05 17:06 | 50.53587 | 20.31750 | 33127 ft | 419 kts | 337° |
| 2026-05-05 17:06 | 50.56321 | 20.30121 | 32206 ft | 421 kts | 337° |
| 2026-05-05 17:06 | 50.59068 | 20.28486 | 31266 ft | 422 kts | 337° |
| 2026-05-05 17:07 | 50.61839 | 20.26903 | 30311 ft | 425 kts | 341° |
| 2026-05-05 17:07 | 50.64757 | 20.25962 | 29285 ft | 429 kts | 352° |
| 2026-05-05 17:07 | 50.67703 | 20.25862 | 28458 ft | 428 kts | 1° |
| 2026-05-05 17:07 | 50.70641 | 20.26591 | 27647 ft | 427 kts | 12° |
| 2026-05-05 17:08 | 50.73450 | 20.28132 | 26869 ft | 426 kts | 22° |
| 2026-05-05 17:08 | 50.76086 | 20.30231 | 26108 ft | 423 kts | 26° |
| 2026-05-05 17:08 | 50.78656 | 20.32473 | 25384 ft | 420 kts | 27° |
| 2026-05-05 17:08 | 50.81188 | 20.34742 | 24673 ft | 416 kts | 27° |
| 2026-05-05 17:09 | 50.83697 | 20.37000 | 23992 ft | 413 kts | 27° |
| 2026-05-05 17:09 | 50.86196 | 20.39240 | 23301 ft | 410 kts | 27° |
| 2026-05-05 17:09 | 50.88643 | 20.41406 | 22547 ft | 405 kts | 26° |
| 2026-05-05 17:09 | 50.91176 | 20.43297 | 21797 ft | 400 kts | 22° |
| 2026-05-05 17:10 | 50.93712 | 20.45096 | 21069 ft | 397 kts | 21° |
| 2026-05-05 17:10 | 50.96236 | 20.46852 | 20371 ft | 394 kts | 21° |
| 2026-05-05 17:10 | 50.98748 | 20.48595 | 19687 ft | 391 kts | 21° |
| 2026-05-05 17:10 | 51.01233 | 20.50323 | 19025 ft | 388 kts | 21° |
| 2026-05-05 17:11 | 51.03667 | 20.52017 | 18385 ft | 386 kts | 21° |
| 2026-05-05 17:11 | 51.06105 | 20.53716 | 18012 ft | 376 kts | 21° |
| 2026-05-05 17:11 | 51.08495 | 20.55388 | 17908 ft | 379 kts | 21° |
| 2026-05-05 17:11 | 51.10933 | 20.57091 | 17855 ft | 383 kts | 21° |
| 2026-05-05 17:12 | 51.13381 | 20.58801 | 17839 ft | 383 kts | 21° |
| 2026-05-05 17:12 | 51.15829 | 20.60513 | 17830 ft | 383 kts | 21° |
| 2026-05-05 17:12 | 51.18268 | 20.62221 | 17819 ft | 383 kts | 21° |
| 2026-05-05 17:12 | 51.20680 | 20.63912 | 17813 ft | 383 kts | 21° |
| 2026-05-05 17:13 | 51.23120 | 20.65624 | 17816 ft | 383 kts | 21° |
| 2026-05-05 17:13 | 51.25557 | 20.67336 | 17818 ft | 383 kts | 21° |
| 2026-05-05 17:13 | 51.28002 | 20.69055 | 17815 ft | 384 kts | 21° |
| 2026-05-05 17:13 | 51.30435 | 20.70767 | 17338 ft | 381 kts | 21° |
| 2026-05-05 17:14 | 51.32862 | 20.72477 | 16650 ft | 379 kts | 21° |
| 2026-05-05 17:14 | 51.35271 | 20.74178 | 15998 ft | 375 kts | 21° |
| 2026-05-05 17:14 | 51.37649 | 20.75860 | 15385 ft | 372 kts | 21° |
| 2026-05-05 17:14 | 51.39969 | 20.77504 | 14927 ft | 364 kts | 21° |
| 2026-05-05 17:15 | 51.42238 | 20.79120 | 14530 ft | 345 kts | 21° |
| 2026-05-05 17:15 | 51.44413 | 20.80679 | 13605 ft | 338 kts | 21° |
| 2026-05-05 17:15 | 51.46535 | 20.82206 | 12643 ft | 330 kts | 21° |
| 2026-05-05 17:15 | 51.48607 | 20.83700 | 11738 ft | 323 kts | 21° |
| 2026-05-05 17:16 | 51.50667 | 20.85190 | 10995 ft | 328 kts | 21° |
| 2026-05-05 17:16 | 51.52762 | 20.86702 | 10365 ft | 331 kts | 21° |
| 2026-05-05 17:16 | 51.54864 | 20.88220 | 9996 ft | 327 kts | 21° |
| 2026-05-05 17:16 | 51.56904 | 20.89700 | 9895 ft | 313 kts | 21° |
| 2026-05-05 17:17 | 51.58831 | 20.91106 | 9827 ft | 302 kts | 21° |
| 2026-05-05 17:17 | 51.60761 | 20.92368 | 9613 ft | 297 kts | 13° |
| 2026-05-05 17:17 | 51.62729 | 20.93239 | 9606 ft | 292 kts | 10° |
| 2026-05-05 17:17 | 51.64717 | 20.94009 | 9654 ft | 294 kts | 9° |
| 2026-05-05 17:18 | 51.66716 | 20.94808 | 9702 ft | 296 kts | 11° |
| 2026-05-05 17:18 | 51.68683 | 20.95643 | 9742 ft | 296 kts | 11° |
| 2026-05-05 17:18 | 51.70675 | 20.96508 | 9779 ft | 296 kts | 11° |
| 2026-05-05 17:18 | 51.72668 | 20.97382 | 9578 ft | 296 kts | 12° |
| 2026-05-05 17:19 | 51.74658 | 20.98256 | 9139 ft | 296 kts | 12° |
| 2026-05-05 17:19 | 51.76645 | 20.99123 | 8744 ft | 295 kts | 12° |
| 2026-05-05 17:19 | 51.78620 | 20.99983 | 8372 ft | 292 kts | 12° |
| 2026-05-05 17:19 | 51.80569 | 21.00827 | 8101 ft | 287 kts | 12° |
| 2026-05-05 17:20 | 51.82486 | 21.01658 | 7846 ft | 282 kts | 12° |
| 2026-05-05 17:20 | 51.84361 | 21.02550 | 7585 ft | 278 kts | 14° |
| 2026-05-05 17:20 | 51.86188 | 21.03474 | 7354 ft | 273 kts | 14° |
| 2026-05-05 17:20 | 51.87969 | 21.04389 | 7122 ft | 269 kts | 14° |
| 2026-05-05 17:21 | 51.89752 | 21.05307 | 6852 ft | 274 kts | 14° |
| 2026-05-05 17:21 | 51.91581 | 21.06248 | 6510 ft | 275 kts | 14° |
| 2026-05-05 17:21 | 51.93385 | 21.07180 | 6194 ft | 267 kts | 14° |
| 2026-05-05 17:22 | 51.96677 | 21.08898 | 5483 ft | 231 kts | 14° |
| 2026-05-05 17:22 | 51.98186 | 21.09590 | 5144 ft | 220 kts | 12° |
| 2026-05-05 17:22 | 51.99649 | 21.10226 | 4865 ft | 214 kts | 7° |
| 2026-05-05 17:22 | 52.01083 | 21.10108 | 4586 ft | 203 kts | 336° |
| 2026-05-05 17:23 | 52.02320 | 21.09126 | 4347 ft | 199 kts | 326° |
| 2026-05-05 17:23 | 52.03551 | 21.08069 | 4011 ft | 201 kts | 329° |
| 2026-05-05 17:23 | 52.04798 | 21.07032 | 3671 ft | 201 kts | 327° |
| 2026-05-05 17:23 | 52.06027 | 21.05941 | 3344 ft | 201 kts | 327° |
| 2026-05-05 17:24 | 52.07259 | 21.04871 | 3024 ft | 200 kts | 328° |
| 2026-05-05 17:24 | 52.08486 | 21.03802 | 2673 ft | 200 kts | 327° |
| 2026-05-05 17:24 | 52.09708 | 21.02731 | 2318 ft | 199 kts | 328° |
| 2026-05-05 17:24 | 52.10929 | 21.01664 | 1940 ft | 200 kts | 327° |
| 2026-05-05 17:25 | 52.12173 | 21.00496 | 1207 ft | 215 kts | 327° |
| 2026-05-05 17:25 | 52.13032 | 20.99690 | 965 ft | 212 kts | 329° |
| 2026-05-05 17:25 | 52.14693 | 20.98170 | 566 ft | 198 kts | 334° |
| 2026-05-05 17:25 | 52.15908 | 20.97329 | 344 ft | 173 kts | 333° |
| 2026-05-05 17:26 | 52.16609 | 20.96673 | 338 ft | 78 kts | 332° |
| 2026-05-05 17:26 | 52.16886 | 20.96516 | 334 ft | 9 kts | 355° |
| 2026-05-05 17:26 | 52.16929 | 20.96514 | 335 ft | 3 kts | 359° |
| 2026-05-05 17:26 | 52.16944 | 20.96514 | 336 ft | 0 kts | 360° |
| 2026-05-05 17:27 | 52.16949 | 20.96514 | 335 ft | 3 kts | 360° |
| 2026-05-05 17:27 | 52.16982 | 20.96515 | 335 ft | 7 kts | 2° |
| 2026-05-05 17:27 | 52.17043 | 20.96520 | 333 ft | 11 kts | 4° |
| 2026-05-05 17:28 | 52.17093 | 20.96583 | 335 ft | 9 kts | 63° |
| 2026-05-05 17:28 | 52.17118 | 20.96662 | 338 ft | 8 kts | 62° |
| 2026-05-05 17:28 | 52.17144 | 20.96740 | 341 ft | 8 kts | 62° |
| 2026-05-05 17:28 | 52.17162 | 20.96816 | 344 ft | 5 kts | 100° |
| 2026-05-05 17:29 | 52.17136 | 20.96861 | 350 ft | 7 kts | 152° |
| 2026-05-05 17:29 | 52.17083 | 20.96908 | 347 ft | 10 kts | 152° |
| 2026-05-05 17:29 | 52.17015 | 20.96966 | 343 ft | 12 kts | 152° |
| 2026-05-05 17:29 | 52.16936 | 20.97035 | 343 ft | 14 kts | 152° |
| 2026-05-05 17:30 | 52.16850 | 20.97110 | 342 ft | 9 kts | 152° |
| 2026-05-05 17:30 | 52.16828 | 20.97145 | 342 ft | 2 kts | 92° |
| 2026-05-05 17:30 | 52.16832 | 20.97181 | 351 ft | 4 kts | 77° |
| 2026-05-05 17:30 | 52.16839 | 20.97226 | 348 ft | 5 kts | 76° |
| 2026-05-05 17:31 | 52.16847 | 20.97280 | 345 ft | 5 kts | 77° |
| 2026-05-05 17:31 | 52.16848 | 20.97285 | 353 ft | 0 kts | 77° |